Time;durP1;ratioP1;P1;durP2;ratioP2;P2;SDS_P1;SDS_P2;PMS_P1;PMS_P2;Temp;Humidity;BMP_temperature;BMP_pressure;BME280_temperature;BME280_humidity;BME280_pressure;Samples;Min_cycle;Max_cycle;Signal;HPM_P1;HPM_P2
2022/04/22 00:02:03;;;;;;;;;;;10.10;94.20;;;;;;6132417;23;19921;-85
2022/04/22 00:04:33;;;;;;;;;;;10.10;94.00;;;;;;6083595;23;19920;-85
2022/04/22 00:07:02;;;;;;;;;;;10.00;94.10;;;;;;6103065;23;19936;-84
2022/04/22 00:09:30;;;;;;;;;;;10.10;94.10;;;;;;6133567;23;19925;-85
2022/04/22 00:11:57;;;;;;;;;;;10.00;94.60;;;;;;6130769;23;19925;-85
2022/04/22 00:14:25;;;;;;;;;;;10.00;94.50;;;;;;6105188;23;19924;-87
2022/04/22 00:16:53;;;;;;;;;;;10.00;95.00;;;;;;6105577;23;19921;-84
2022/04/22 00:19:21;;;;;;;;;;;9.70;95.00;;;;;;6105624;23;19924;-87
2022/04/22 00:21:49;;;;;;;;;;;9.80;95.30;;;;;;6109154;23;19920;-86
2022/04/22 00:24:17;;;;;;;;;;;9.90;95.70;;;;;;6105946;23;19948;-85
2022/04/22 00:26:44;;;;;;;;;;;9.80;95.60;;;;;;6105078;23;20281;-86
2022/04/22 00:29:12;;;;;;;;;;;9.80;95.20;;;;;;6105976;23;19937;-85
2022/04/22 00:31:42;;;;;;;;;;;9.60;95.40;;;;;;6133285;23;19921;-86
2022/04/22 00:34:09;;;;;;;;;;;9.90;96.10;;;;;;6131654;23;19928;-86
2022/04/22 00:36:38;;;;;;;;;;;9.30;96.00;;;;;;6151360;23;20349;-88
2022/04/22 00:39:06;;;;;;;;;;;9.70;96.40;;;;;;6104143;23;19921;-84
2022/04/22 00:41:34;;;;;;;;;;;8.50;95.80;;;;;;6136049;23;19927;-85
2022/04/22 00:44:02;;;;;;;;;;;9.70;96.40;;;;;;6133114;23;19932;-86
2022/04/22 00:46:30;;;;;;;;;;;9.80;96.50;;;;;;6131802;23;20607;-84
2022/04/22 00:48:57;;;;;;;;;;;9.80;96.70;;;;;;6130860;23;19933;-86
2022/04/22 00:51:26;;;;;;;;;;;9.80;96.50;;;;;;6129962;23;19932;-85
2022/04/22 00:53:54;;;;;;;;;;;9.80;96.70;;;;;;6132497;23;19931;-87
2022/04/22 00:56:21;;;;;;;;;;;9.80;96.80;;;;;;6154557;23;19921;-84
2022/04/22 00:58:53;;;;;;;;;;;9.80;96.70;;;;;;6136687;23;19924;-85
2022/04/22 01:01:20;;;;;;;;;;;9.90;96.80;;;;;;6133666;23;20298;-84
2022/04/22 01:12:11;;;;;;;;;;;9.90;97.10;;;;;;6143767;23;19921;-85
2022/04/22 01:14:39;;;;;;;;;;;9.90;97.50;;;;;;6142430;23;19927;-85
2022/04/22 01:17:07;;;;;;;;;;;9.80;97.10;;;;;;6129834;23;19921;-85
2022/04/22 01:19:35;;;;;;;;;;;9.50;96.80;;;;;;6129684;23;19925;-85
2022/04/22 01:22:03;;;;;;;;;;;9.90;96.90;;;;;;6081972;23;19927;-84
2022/04/22 01:24:31;;;;;;;;;;;9.90;97.30;;;;;;6129644;23;19925;-86
2022/04/22 01:27:00;;;;;;;;;;;9.40;97.10;;;;;;6132299;23;20502;-86
2022/04/22 01:29:28;;;;;;;;;;;10.00;97.60;;;;;;6128629;23;19925;-85
2022/04/22 01:31:56;;;;;;;;;;;10.00;97.10;;;;;;6128710;23;19921;-85
2022/04/22 01:34:23;;;;;;;;;;;10.00;97.00;;;;;;6128317;23;19944;-86
2022/04/22 01:36:52;;;;;;;;;;;10.20;97.30;;;;;;6128518;23;20282;-85
2022/04/22 01:39:19;;;;;;;;;;;10.10;97.60;;;;;;6157299;23;19928;-86
2022/04/22 01:41:47;;;;;;;;;;;10.10;97.50;;;;;;6128932;23;19927;-85
2022/04/22 01:44:16;;;;;;;;;;;10.10;97.90;;;;;;6132551;23;19925;-84
2022/04/22 01:46:44;;;;;;;;;;;10.20;97.40;;;;;;6129975;23;19927;-86
2022/04/22 01:49:13;;;;;;;;;;;9.40;97.30;;;;;;6134897;23;19921;-86
2022/04/22 01:51:41;;;;;;;;;;;10.20;97.40;;;;;;6132171;23;19924;-85
2022/04/22 01:54:08;;;;;;;;;;;10.30;97.60;;;;;;6081184;23;19925;-85
2022/04/22 01:56:36;;;;;;;;;;;10.30;97.50;;;;;;6134800;23;19924;-88
2022/04/22 01:59:04;;;;;;;;;;;10.30;97.90;;;;;;6130914;23;20250;-89
2022/04/22 02:01:32;;;;;;;;;;;10.30;97.50;;;;;;6128366;23;19920;-88
2022/04/22 02:03:59;;;;;;;;;;;10.30;98.20;;;;;;6156147;23;19927;-88
2022/04/22 02:06:28;;;;;;;;;;;10.30;98.00;;;;;;6130087;23;19921;-87
2022/04/22 02:08:55;;;;;;;;;;;10.30;98.20;;;;;;6133035;23;19927;-87
2022/04/22 02:11:24;;;;;;;;;;;10.20;98.30;;;;;;6124289;23;20425;-87
2022/04/22 02:13:51;;;;;;;;;;;10.20;98.50;;;;;;6132984;23;19921;-89
2022/04/22 02:16:20;;;;;;;;;;;10.20;98.30;;;;;;6131835;23;19925;-86
2022/04/22 02:18:49;;;;;;;;;;;10.10;98.70;;;;;;6138728;23;19928;-84
2022/04/22 02:21:16;;;;;;;;;;;10.10;99.20;;;;;;6140599;23;19940;-86
2022/04/22 02:23:44;;;;;;;;;;;10.00;98.70;;;;;;6144388;23;20131;-84
2022/04/22 02:26:11;;;;;;;;;;;9.90;99.00;;;;;;6141878;23;19921;-84
2022/04/22 02:28:40;;;;;;;;;;;9.90;98.80;;;;;;6139631;23;19921;-86
2022/04/22 02:31:11;;;;;;;;;;;9.80;99.40;;;;;;6140320;23;19921;-86
2022/04/22 02:33:39;;;;;;;;;;;9.80;99.40;;;;;;6148328;23;19931;-85
2022/04/22 02:36:07;;;;;;;;;;;9.80;99.90;;;;;;6134301;23;19920;-85
2022/04/22 02:38:36;;;;;;;;;;;9.70;99.90;;;;;;6106870;23;19921;-86
2022/04/22 02:46:37;;;;;;;;;;;9.70;99.90;;;;;;6131455;23;19935;-84
2022/04/22 02:49:05;;;;;;;;;;;9.80;99.90;;;;;;6103876;23;20274;-86
2022/04/22 02:51:32;;;;;;;;;;;9.70;99.90;;;;;;6129478;23;20278;-84
2022/04/22 02:54:00;;;;;;;;;;;9.80;99.90;;;;;;6128451;23;19928;-84
2022/04/22 02:56:29;;;;;;;;;;;9.80;99.90;;;;;;6131934;23;19921;-87
2022/04/22 02:58:57;;;;;;;;;;;9.70;99.90;;;;;;6104156;23;19920;-86
2022/04/22 03:01:25;;;;;;;;;;;9.80;99.90;;;;;;6133468;23;19927;-85
2022/04/22 03:03:52;;;;;;;;;;;9.80;99.90;;;;;;6131570;23;19920;-85
2022/04/22 03:06:20;;;;;;;;;;;9.90;99.90;;;;;;6104758;23;19921;-85
2022/04/22 03:08:47;;;;;;;;;;;9.90;99.90;;;;;;6103900;23;20226;-86
2022/04/22 03:11:20;;;;;;;;;;;10.50;99.90;;;;;;6132449;23;19935;-86
2022/04/22 03:13:49;;;;;;;;;;;10.00;99.90;;;;;;6103928;23;19924;-86
2022/04/22 03:16:23;;;;;;;;;;;10.00;99.90;;;;;;6080415;23;19921;-86
2022/04/22 03:18:51;;;;;;;;;;;10.00;99.90;;;;;;6102260;23;19939;-85
2022/04/22 03:21:18;;;;;;;;;;;10.00;99.90;;;;;;6134538;23;19921;-88
2022/04/22 03:23:47;;;;;;;;;;;10.00;99.90;;;;;;6133789;23;19931;-85
2022/04/22 03:26:14;;;;;;;;;;;10.00;99.90;;;;;;6128577;23;19928;-85
2022/04/22 03:28:42;;;;;;;;;;;10.00;99.90;;;;;;6134119;23;20249;-86
2022/04/22 03:31:09;;;;;;;;;;;10.00;99.90;;;;;;6130009;23;20101;-85
2022/04/22 03:33:37;;;;;;;;;;;9.90;99.90;;;;;;6131391;23;19927;-87
2022/04/22 03:36:05;;;;;;;;;;;9.90;99.90;;;;;;6128981;23;19956;-84
2022/04/22 03:38:33;;;;;;;;;;;9.90;99.90;;;;;;6127767;23;19920;-84
2022/04/22 03:41:02;;;;;;;;;;;9.90;99.90;;;;;;6103953;23;19927;-86
2022/04/22 03:43:30;;;;;;;;;;;10.80;99.90;;;;;;6103127;23;19921;-86
2022/04/22 03:45:59;;;;;;;;;;;10.00;99.90;;;;;;6106492;23;19925;-85
2022/04/22 03:48:27;;;;;;;;;;;10.00;99.90;;;;;;6102021;23;19925;-87
2022/04/22 03:50:55;;;;;;;;;;;10.00;99.90;;;;;;6128210;23;19932;-85
2022/04/22 03:53:24;;;;;;;;;;;10.00;99.90;;;;;;6130696;23;19927;-86
2022/04/22 03:55:51;;;;;;;;;;;10.00;99.90;;;;;;6108055;23;19921;-85
2022/04/22 03:58:23;;;;;;;;;;;10.10;99.90;;;;;;6080926;23;19925;-86
2022/04/22 04:00:51;;;;;;;;;;;10.10;99.90;;;;;;6132584;23;19947;-84
2022/04/22 04:03:19;;;;;;;;;;;10.10;99.90;;;;;;6107557;23;19924;-86
2022/04/22 04:05:51;;;;;;;;;;;10.10;99.90;;;;;;6097195;23;19905;-86
2022/04/22 04:08:20;;;;;;;;;;;10.10;99.90;;;;;;6117775;23;19932;-86
2022/04/22 04:16:22;;;;;;;;;;;10.10;99.90;;;;;;6109786;23;20230;-84
2022/04/22 04:18:49;;;;;;;;;;;10.20;99.90;;;;;;6084596;23;20230;-86
2022/04/22 04:24:08;;;;;;;;;;;10.30;99.90;;;;;;6138376;23;19921;-85
2022/04/22 04:26:36;;;;;;;;;;;10.30;99.90;;;;;;6115346;23;19921;-87
2022/04/22 04:29:13;;;;;;;;;;;10.30;99.90;;;;;;6114124;23;19925;-89
2022/04/22 04:31:41;;;;;;;;;;;10.30;99.90;;;;;;6146196;23;19921;-91
2022/04/22 04:34:08;;;;;;;;;;;10.30;99.90;;;;;;6112333;23;19924;-90
2022/04/22 04:36:36;;;;;;;;;;;10.40;99.90;;;;;;6130504;23;19932;-86
2022/04/22 04:39:03;;;;;;;;;;;10.40;99.90;;;;;;6132888;23;20346;-91
2022/04/22 04:41:31;;;;;;;;;;;10.40;99.90;;;;;;6108035;23;19921;-88
2022/04/22 04:44:00;;;;;;;;;;;10.40;99.90;;;;;;6134208;23;19927;-85
2022/04/22 04:46:28;;;;;;;;;;;10.50;99.90;;;;;;6145071;23;19921;-85
2022/04/22 04:49:01;;;;;;;;;;;10.40;99.90;;;;;;6144952;23;19931;-85
2022/04/22 04:51:32;;;;;;;;;;;10.50;99.90;;;;;;6112022;23;19925;-86
2022/04/22 04:53:59;;;;;;;;;;;10.40;99.90;;;;;;6134931;23;19927;-84
2022/04/22 04:56:27;;;;;;;;;;;10.50;99.90;;;;;;6135232;23;19928;-84
2022/04/22 04:58:54;;;;;;;;;;;10.50;99.90;;;;;;6135231;23;19932;-84
2022/04/22 05:01:23;;;;;;;;;;;10.40;99.90;;;;;;6138177;23;19921;-89
2022/04/22 05:03:51;;;;;;;;;;;10.00;99.90;;;;;;6134266;23;19925;-87
2022/04/22 05:06:19;;;;;;;;;;;10.40;99.90;;;;;;6134459;23;20365;-88
2022/04/22 05:08:52;;;;;;;;;;;10.50;99.90;;;;;;6160966;23;19924;-86
2022/04/22 05:11:22;;;;;;;;;;;10.40;99.90;;;;;;6134419;23;19929;-87
2022/04/22 05:13:51;;;;;;;;;;;10.40;99.90;;;;;;6137786;23;19929;-88
2022/04/22 05:16:21;;;;;;;;;;;10.40;99.90;;;;;;6133999;23;19921;-88
2022/04/22 05:18:49;;;;;;;;;;;10.40;99.90;;;;;;6135935;23;19927;-88
2022/04/22 05:21:26;;;;;;;;;;;10.50;99.90;;;;;;6133913;23;19931;-85
2022/04/22 05:23:55;;;;;;;;;;;10.40;99.90;;;;;;6138521;23;19921;-87
2022/04/22 05:26:25;;;;;;;;;;;10.50;99.90;;;;;;6133692;23;19944;-87
2022/04/22 05:28:54;;;;;;;;;;;10.40;99.90;;;;;;6112224;23;20330;-85
2022/04/22 05:34:10;;;;;;;;;;;10.50;99.90;;;;;;6162172;23;19921;-85
2022/04/22 05:36:41;;;;;;;;;;;10.40;99.90;;;;;;6142642;23;19931;-86
2022/04/22 05:39:11;;;;;;;;;;;10.60;99.90;;;;;;6112740;23;19944;-86
2022/04/22 05:41:42;;;;;;;;;;;10.60;99.90;;;;;;6108217;23;19935;-88
2022/04/22 05:44:14;;;;;;;;;;;10.60;99.90;;;;;;6137978;23;19924;-85
2022/04/22 05:46:43;;;;;;;;;;;10.70;99.90;;;;;;6087359;23;19921;-86
2022/04/22 05:49:11;;;;;;;;;;;10.70;99.90;;;;;;6135027;23;19935;-86
2022/04/22 05:51:40;;;;;;;;;;;10.70;99.90;;;;;;6113951;23;19925;-84
2022/04/22 05:54:09;;;;;;;;;;;10.70;99.90;;;;;;6137874;23;19921;-85
2022/04/22 05:56:38;;;;;;;;;;;10.80;99.90;;;;;;6137690;23;19924;-87
2022/04/22 05:59:07;;;;;;;;;;;10.80;99.90;;;;;;6109625;23;19932;-86
2022/04/22 06:01:36;;;;;;;;;;;10.80;99.90;;;;;;6113805;23;19921;-88
2022/04/22 06:04:04;;;;;;;;;;;10.80;99.90;;;;;;6109137;23;19956;-86
2022/04/22 06:06:33;;;;;;;;;;;10.90;99.90;;;;;;6063947;23;19931;-87
2022/04/22 06:11:55;;;;;;;;;;;10.90;99.90;;;;;;6137789;23;19920;-85
2022/04/22 06:14:23;;;;;;;;;;;11.00;99.90;;;;;;6111029;23;20245;-89
2022/04/22 06:16:54;;;;;;;;;;;11.00;99.90;;;;;;6138611;23;19921;-87
2022/04/22 06:19:24;;;;;;;;;;;11.10;99.90;;;;;;6143366;23;19939;-86
2022/04/22 06:21:54;;;;;;;;;;;11.10;99.90;;;;;;6137841;23;19927;-87
2022/04/22 06:24:21;;;;;;;;;;;11.20;99.90;;;;;;6112665;23;19955;-86
2022/04/22 06:27:26;;;;;;;;;;;11.20;99.90;;;;;;6091240;23;19928;-84
2022/04/22 06:29:55;;;;;;;;;;;11.30;99.90;;;;;;6135802;23;19924;-84
2022/04/22 06:32:26;;;;;;;;;;;11.30;99.90;;;;;;6087481;23;19921;-85
2022/04/22 06:34:53;;;;;;;;;;;11.30;99.90;;;;;;6109263;23;19931;-88
2022/04/22 06:37:24;;;;;;;;;;;11.30;99.90;;;;;;6135579;23;19944;-84
2022/04/22 06:48:32;;;;;;;;;;;11.30;99.90;;;;;;6136554;23;19925;-86
2022/04/22 06:51:11;;;;;;;;;;;11.40;99.90;;;;;;6131620;23;19921;-86
2022/04/22 06:53:41;;;;;;;;;;;11.40;99.90;;;;;;6107540;23;20329;-86
2022/04/22 06:56:09;;;;;;;;;;;11.40;99.90;;;;;;6105580;23;19925;-87
2022/04/22 06:58:38;;;;;;;;;;;11.40;99.90;;;;;;6130109;23;19921;-88
2022/04/22 07:01:09;;;;;;;;;;;11.40;99.90;;;;;;6135943;23;19935;-86
2022/04/22 07:04:01;;;;;;;;;;;11.40;99.90;;;;;;6131675;23;19925;-85
2022/04/22 07:06:30;;;;;;;;;;;11.50;99.90;;;;;;6139780;23;19931;-87
2022/04/22 07:08:57;;;;;;;;;;;11.50;99.90;;;;;;6138269;23;19935;-87
2022/04/22 07:11:27;;;;;;;;;;;11.50;99.90;;;;;;6117717;23;19931;-85
2022/04/22 07:13:55;;;;;;;;;;;11.50;99.90;;;;;;6118976;23;19925;-85
2022/04/22 07:16:23;;;;;;;;;;;11.50;99.90;;;;;;6123675;23;19921;-88
2022/04/22 07:18:59;;;;;;;;;;;11.60;99.90;;;;;;6147334;23;19925;-86
2022/04/22 07:21:27;;;;;;;;;;;11.60;99.90;;;;;;6148201;23;19931;-85
2022/04/22 07:23:57;;;;;;;;;;;11.60;99.90;;;;;;6144767;23;19931;-84
2022/04/22 07:26:27;;;;;;;;;;;11.80;99.90;;;;;;6093653;23;19927;-83
2022/04/22 07:28:57;;;;;;;;;;;11.70;99.90;;;;;;6111551;23;19935;-84
2022/04/22 07:31:28;;;;;;;;;;;11.80;99.90;;;;;;6107747;23;19921;-88
2022/04/22 07:33:55;;;;;;;;;;;11.90;99.90;;;;;;6106866;23;19942;-87
2022/04/22 07:36:23;;;;;;;;;;;11.80;99.90;;;;;;6131056;23;19921;-85
2022/04/22 07:38:51;;;;;;;;;;;12.00;99.90;;;;;;6111100;23;19925;-84
2022/04/22 07:41:23;;;;;;;;;;;12.10;99.90;;;;;;6132466;23;19920;-87
2022/04/22 07:46:47;;;;;;;;;;;12.40;99.90;;;;;;6138653;23;19931;-86
2022/04/22 07:49:26;;;;;;;;;;;12.50;99.90;;;;;;6110870;23;19927;-89
2022/04/22 07:51:53;;;;;;;;;;;12.70;99.90;;;;;;6085916;23;19921;-84
2022/04/22 07:54:25;;;;;;;;;;;12.80;99.90;;;;;;6135285;23;19935;-86
2022/04/22 07:56:53;;;;;;;;;;;12.90;99.90;;;;;;6138495;23;19911;-85
2022/04/22 07:59:22;;;;;;;;;;;12.80;99.90;;;;;;6107390;23;19924;-84
2022/04/22 08:01:49;;;;;;;;;;;12.90;99.90;;;;;;6135254;23;19921;-87
2022/04/22 08:04:17;;;;;;;;;;;13.00;99.90;;;;;;6138032;23;19920;-85
2022/04/22 08:06:45;;;;;;;;;;;12.70;99.90;;;;;;6105883;23;20155;-86
2022/04/22 08:09:32;;;;;;;;;;;13.00;99.90;;;;;;6088760;23;19931;-85
2022/04/22 08:12:01;;;;;;;;;;;13.00;99.90;;;;;;6107849;23;19924;-84
2022/04/22 08:14:29;;;;;;;;;;;13.00;99.90;;;;;;6135250;23;19925;-86
2022/04/22 08:16:56;;;;;;;;;;;12.90;99.90;;;;;;6111236;23;19931;-87
2022/04/22 08:19:24;;;;;;;;;;;12.90;99.90;;;;;;6133481;23;19931;-87
2022/04/22 08:21:52;;;;;;;;;;;13.00;99.90;;;;;;6133732;23;19935;-87
2022/04/22 08:24:24;;;;;;;;;;;13.00;99.80;;;;;;6107484;23;19921;-85
2022/04/22 08:26:52;;;;;;;;;;;13.10;99.90;;;;;;6083283;23;19925;-85
2022/04/22 08:29:20;;;;;;;;;;;13.10;99.80;;;;;;6129774;23;19924;-86
2022/04/22 08:31:48;;;;;;;;;;;13.20;99.80;;;;;;6131177;23;19931;-85
2022/04/22 08:34:16;;;;;;;;;;;12.50;99.50;;;;;;6104792;23;19921;-85
2022/04/22 08:36:45;;;;;;;;;;;13.30;99.50;;;;;;6105262;23;19931;-86
2022/04/22 08:39:14;;;;;;;;;;;13.30;99.20;;;;;;6110162;23;19944;-88
2022/04/22 08:41:42;;;;;;;;;;;14.00;99.20;;;;;;6106785;23;19935;-84
2022/04/22 08:44:12;;;;;;;;;;;13.30;99.10;;;;;;6107649;23;19921;-85
2022/04/22 08:52:34;;;;;;;;;;;13.80;99.10;;;;;;6069736;23;19921;-84
2022/04/22 08:55:06;;;;;;;;;;;13.80;98.60;;;;;;6074244;23;20334;-84
2022/04/22 08:57:34;;;;;;;;;;;13.80;98.30;;;;;;6104649;23;19929;-88
2022/04/22 09:00:07;;;;;;;;;;;13.80;98.20;;;;;;6131329;23;19921;-87
2022/04/22 09:02:37;;;;;;;;;;;13.80;98.10;;;;;;6131974;23;19921;-85
2022/04/22 09:05:08;;;;;;;;;;;13.80;98.40;;;;;;6105146;23;19931;-85
2022/04/22 09:07:37;;;;;;;;;;;13.90;98.20;;;;;;6108716;23;19920;-88
2022/04/22 09:10:05;;;;;;;;;;;13.90;98.30;;;;;;6132203;23;19924;-86
2022/04/22 09:12:34;;;;;;;;;;;13.90;98.30;;;;;;6105910;23;19936;-84
2022/04/22 09:15:02;;;;;;;;;;;14.00;98.20;;;;;;6131961;23;19921;-85
2022/04/22 09:17:32;;;;;;;;;;;13.70;97.80;;;;;;6106924;23;19920;-88
2022/04/22 09:20:01;;;;;;;;;;;14.00;97.80;;;;;;6081052;23;19931;-86
2022/04/22 09:22:34;;;;;;;;;;;13.90;97.80;;;;;;6142015;23;19927;-86
2022/04/22 09:25:08;;;;;;;;;;;13.80;97.90;;;;;;6134198;23;19925;-85
2022/04/22 09:27:42;;;;;;;;;;;13.70;98.10;;;;;;6134281;23;20277;-88
2022/04/22 09:30:11;;;;;;;;;;;13.70;98.10;;;;;;6132243;23;20391;-88
2022/04/22 09:32:40;;;;;;;;;;;13.70;98.40;;;;;;6107339;23;19966;-86
2022/04/22 09:35:17;;;;;;;;;;;13.80;98.50;;;;;;6133060;23;19921;-87
2022/04/22 09:43:24;;;;;;;;;;;14.10;98.30;;;;;;6135439;23;19921;-85
2022/04/22 09:45:53;;;;;;;;;;;14.20;98.30;;;;;;6111522;23;19928;-85
2022/04/22 09:48:21;;;;;;;;;;;13.40;97.80;;;;;;6156434;23;19912;-84
2022/04/22 09:50:52;;;;;;;;;;;14.20;97.80;;;;;;6109656;23;19921;-85
2022/04/22 09:53:35;;;;;;;;;;;14.20;98.00;;;;;;6129598;23;20241;-85
2022/04/22 09:56:07;;;;;;;;;;;14.20;97.60;;;;;;6154912;23;19927;-84
2022/04/22 09:58:34;;;;;;;;;;;14.20;97.50;;;;;;6128520;23;20101;-84
2022/04/22 10:01:04;;;;;;;;;;;14.20;97.60;;;;;;6131739;23;19940;-84
2022/04/22 10:03:34;;;;;;;;;;;14.30;97.20;;;;;;6132239;23;19935;-84
2022/04/22 10:06:02;;;;;;;;;;;14.30;97.20;;;;;;6139133;23;19929;-85
2022/04/22 10:08:36;;;;;;;;;;;14.00;96.90;;;;;;6161687;23;19928;-84
2022/04/22 10:11:04;;;;;;;;;;;14.40;96.70;;;;;;6140248;23;19928;-84
2022/04/22 10:13:46;;;;;;;;;;;14.40;96.70;;;;;;6161849;23;19921;-83
2022/04/22 10:16:14;;;;;;;;;;;14.40;96.50;;;;;;6132598;23;20337;-86
2022/04/22 10:18:42;;;;;;;;;;;14.40;96.70;;;;;;6127116;23;19932;-84
2022/04/22 10:21:10;;;;;;;;;;;14.40;96.60;;;;;;6132700;23;19921;-87
2022/04/22 10:23:45;;;;;;;;;;;14.30;96.70;;;;;;6108240;23;19932;-87
2022/04/22 10:26:12;;;;;;;;;;;14.30;96.70;;;;;;6129220;23;19943;-87
2022/04/22 10:28:42;;;;;;;;;;;14.20;96.40;;;;;;6154586;23;19947;-84
2022/04/22 10:31:10;;;;;;;;;;;14.20;96.50;;;;;;6128071;23;19928;-84
2022/04/22 10:33:38;;;;;;;;;;;14.20;96.40;;;;;;6079673;23;19921;-84
2022/04/22 10:36:06;;;;;;;;;;;14.30;96.50;;;;;;6135553;23;20360;-86
2022/04/22 10:38:38;;;;;;;;;;;14.40;96.30;;;;;;6132608;23;19931;-85
2022/04/22 10:41:13;;;;;;;;;;;14.40;96.10;;;;;;6134357;23;20235;-86
2022/04/22 10:43:41;;;;;;;;;;;14.40;96.20;;;;;;6082366;23;19921;-87
2022/04/22 10:49:11;;;;;;;;;;;13.30;95.70;;;;;;6135549;23;19925;-86
2022/04/22 10:51:59;;;;;;;;;;;13.30;95.70;;;;;;6131640;23;19925;-87
2022/04/22 10:54:45;;;;;;;;;;;14.30;95.80;;;;;;6138135;23;19926;-85
2022/04/22 10:57:18;;;;;;;;;;;14.30;95.70;;;;;;6135284;23;19927;-87
2022/04/22 11:00:02;;;;;;;;;;;14.60;95.80;;;;;;6136344;23;19925;-84
2022/04/22 11:02:32;;;;;;;;;;;14.80;94.70;;;;;;6144180;23;19921;-85
2022/04/22 11:05:20;;;;;;;;;;;14.90;94.80;;;;;;6143553;23;19931;-84
2022/04/22 11:07:56;;;;;;;;;;;15.20;94.40;;;;;;6145567;23;19909;-85
2022/04/22 11:10:24;;;;;;;;;;;15.10;94.60;;;;;;6148050;23;19928;-86
2022/04/22 11:12:54;;;;;;;;;;;15.20;93.90;;;;;;6141202;23;19925;-88
2022/04/22 11:15:41;;;;;;;;;;;15.40;94.00;;;;;;6144496;23;19925;-83
2022/04/22 11:18:16;;;;;;;;;;;14.80;93.80;;;;;;6136607;23;19927;-86
2022/04/22 11:20:51;;;;;;;;;;;15.90;93.80;;;;;;6116100;23;19915;-86
2022/04/22 11:23:23;;;;;;;;;;;16.00;93.20;;;;;;6147530;23;19921;-86
2022/04/22 11:25:51;;;;;;;;;;;16.00;93.20;;;;;;6144584;23;19921;-86
2022/04/22 11:28:21;;;;;;;;;;;16.20;93.20;;;;;;6148249;23;19921;-87
2022/04/22 11:30:49;;;;;;;;;;;16.40;93.00;;;;;;6144523;23;20322;-86
2022/04/22 11:33:24;;;;;;;;;;;16.40;92.70;;;;;;6144343;23;20079;-86
2022/04/22 11:36:00;;;;;;;;;;;16.50;92.10;;;;;;6142628;23;19953;-86
2022/04/22 11:38:32;;;;;;;;;;;16.50;91.90;;;;;;6114644;23;19924;-86
2022/04/22 11:41:10;;;;;;;;;;;16.50;92.20;;;;;;6138674;23;19921;-86
2022/04/22 11:43:39;;;;;;;;;;;16.50;92.10;;;;;;6145157;23;20297;-87
2022/04/22 11:46:08;;;;;;;;;;;16.40;91.90;;;;;;6139214;23;19931;-86
2022/04/22 11:48:43;;;;;;;;;;;16.40;91.70;;;;;;6140751;23;20346;-87
2022/04/22 11:51:11;;;;;;;;;;;16.30;91.70;;;;;;6140222;23;19936;-87
2022/04/22 11:53:46;;;;;;;;;;;16.30;91.90;;;;;;6120933;23;19920;-88
2022/04/22 11:56:22;;;;;;;;;;;16.40;92.10;;;;;;6163845;23;19939;-86
2022/04/22 11:58:54;;;;;;;;;;;16.60;92.10;;;;;;6142205;23;19921;-88
2022/04/22 12:10:03;;;;;;;;;;;16.60;91.80;;;;;;6166322;23;19929;-86
2022/04/22 12:13:00;;;;;;;;;;;16.50;92.10;;;;;;6154545;23;19925;-85
2022/04/22 12:15:30;;;;;;;;;;;16.60;92.20;;;;;;6140643;23;19925;-87
2022/04/22 12:18:29;;;;;;;;;;;16.60;92.30;;;;;;6121563;23;19921;-86
2022/04/22 12:21:08;;;;;;;;;;;16.60;92.30;;;;;;6168170;23;19921;-86
2022/04/22 12:23:48;;;;;;;;;;;16.60;92.20;;;;;;6149585;23;19931;-86
2022/04/22 12:26:24;;;;;;;;;;;16.70;92.10;;;;;;6145751;23;19921;-86
2022/04/22 12:29:10;;;;;;;;;;;16.50;92.20;;;;;;6149442;23;20531;-89
2022/04/22 12:31:41;;;;;;;;;;;16.50;92.50;;;;;;6147673;23;19909;-89
2022/04/22 12:34:15;;;;;;;;;;;16.50;92.40;;;;;;6122979;23;19924;-85
2022/04/22 12:36:51;;;;;;;;;;;16.60;92.40;;;;;;6147956;23;19909;-87
2022/04/22 12:39:41;;;;;;;;;;;16.80;92.50;;;;;;6148609;23;19909;-88
2022/04/22 12:42:20;;;;;;;;;;;17.10;92.30;;;;;;6144455;23;19921;-90
2022/04/22 12:53:42;;;;;;;;;;;18.20;91.20;;;;;;6136136;23;19921;-85
2022/04/22 12:56:10;;;;;;;;;;;18.20;90.70;;;;;;6142597;23;19943;-88
2022/04/22 12:58:50;;;;;;;;;;;18.20;91.10;;;;;;6148352;23;19921;-84
2022/04/22 13:01:28;;;;;;;;;;;18.20;90.80;;;;;;6141381;23;19921;-86
2022/04/22 13:03:59;;;;;;;;;;;18.30;90.80;;;;;;6175084;23;19921;-85
2022/04/22 13:06:52;;;;;;;;;;;18.40;90.90;;;;;;6121285;23;19919;-86
2022/04/22 13:09:25;;;;;;;;;;;18.40;91.00;;;;;;6141773;23;19929;-84
2022/04/22 13:11:55;;;;;;;;;;;18.20;90.90;;;;;;6141218;23;19927;-84
2022/04/22 13:14:38;;;;;;;;;;;18.30;91.00;;;;;;6121979;23;19940;-86
2022/04/22 13:17:18;;;;;;;;;;;18.40;90.90;;;;;;6143751;23;19925;-85
2022/04/22 13:19:55;;;;;;;;;;;18.60;90.60;;;;;;6118030;23;19921;-83
2022/04/22 13:22:23;;;;;;;;;;;18.60;89.70;;;;;;6143375;23;19924;-85
2022/04/22 13:24:54;;;;;;;;;;;18.80;90.10;;;;;;6115977;23;20359;-85
2022/04/22 13:27:31;;;;;;;;;;;18.80;90.10;;;;;;6137898;23;19920;-87
2022/04/22 13:30:04;;;;;;;;;;;19.00;90.20;;;;;;6136632;23;19921;-85
2022/04/22 13:32:31;;;;;;;;;;;19.10;89.70;;;;;;6139592;23;19925;-87
2022/04/22 13:34:59;;;;;;;;;;;19.20;89.80;;;;;;6136219;23;19927;-87
2022/04/22 13:37:29;;;;;;;;;;;19.10;89.10;;;;;;6136680;23;19925;-85
2022/04/22 13:39:56;;;;;;;;;;;18.90;90.20;;;;;;6136417;23;19940;-87
2022/04/22 13:42:25;;;;;;;;;;;19.00;90.40;;;;;;6134394;23;19927;-87
2022/04/22 13:53:14;;;;;;;;;;;18.50;90.10;;;;;;6134073;23;20334;-87
2022/04/22 13:55:43;;;;;;;;;;;18.70;90.10;;;;;;6132830;23;20177;-87
2022/04/22 13:58:12;;;;;;;;;;;18.90;90.00;;;;;;6139852;23;19924;-89
2022/04/22 14:00:43;;;;;;;;;;;19.00;89.90;;;;;;6136385;23;20250;-88
2022/04/22 14:03:12;;;;;;;;;;;19.20;89.00;;;;;;6136913;23;19927;-88
2022/04/22 14:05:57;;;;;;;;;;;19.30;89.00;;;;;;6090736;23;19924;-86
2022/04/22 14:08:40;;;;;;;;;;;19.50;88.10;;;;;;6111280;23;19921;-85
2022/04/22 14:11:15;;;;;;;;;;;19.30;88.00;;;;;;6135184;23;20318;-86
2022/04/22 14:13:45;;;;;;;;;;;19.40;88.00;;;;;;6159937;23;19997;-89
2022/04/22 14:16:19;;;;;;;;;;;19.30;87.30;;;;;;6158112;23;20530;-89
2022/04/22 14:18:48;;;;;;;;;;;19.60;86.70;;;;;;6134595;23;19921;-85
2022/04/22 14:21:19;;;;;;;;;;;19.90;86.20;;;;;;6134264;23;19921;-89
2022/04/22 14:23:56;;;;;;;;;;;20.00;85.10;;;;;;6138759;23;20444;-85
2022/04/22 14:26:25;;;;;;;;;;;20.20;85.40;;;;;;6110002;23;19921;-85
2022/04/22 14:29:01;;;;;;;;;;;20.30;84.30;;;;;;6116708;23;19920;-85
2022/04/22 14:31:31;;;;;;;;;;;20.50;84.90;;;;;;6114793;23;19920;-88
2022/04/22 14:33:59;;;;;;;;;;;20.70;84.10;;;;;;6144164;23;19924;-86
2022/04/22 14:36:28;;;;;;;;;;;20.50;83.80;;;;;;6138776;23;20241;-86
2022/04/22 14:38:58;;;;;;;;;;;20.50;84.10;;;;;;6108845;23;19927;-87
2022/04/22 14:41:30;;;;;;;;;;;19.80;84.10;;;;;;6132314;23;19928;-87
2022/04/22 14:44:02;;;;;;;;;;;19.40;85.20;;;;;;6138030;23;20447;-86
2022/04/22 14:46:32;;;;;;;;;;;19.30;86.00;;;;;;6137074;23;19921;-86
2022/04/22 14:49:05;;;;;;;;;;;19.40;86.10;;;;;;6135934;23;19935;-89
2022/04/22 14:51:37;;;;;;;;;;;19.50;85.70;;;;;;6105673;23;20358;-87
2022/04/22 14:54:08;;;;;;;;;;;19.40;85.90;;;;;;6107301;23;19925;-86
2022/04/22 14:56:39;;;;;;;;;;;19.30;85.40;;;;;;6153083;23;19921;-85
2022/04/22 14:59:13;;;;;;;;;;;18.90;85.60;;;;;;6130815;23;19931;-86
2022/04/22 15:01:46;;;;;;;;;;;18.70;86.70;;;;;;6132224;23;19935;-87
2022/04/22 15:04:15;;;;;;;;;;;18.30;87.70;;;;;;6128788;23;20206;-85
2022/04/22 15:06:42;;;;;;;;;;;18.10;88.40;;;;;;6127460;23;19941;-85
2022/04/22 15:09:10;;;;;;;;;;;17.60;89.00;;;;;;6124123;23;19929;-83
2022/04/22 15:11:43;;;;;;;;;;;17.60;89.80;;;;;;6129827;23;20337;-85
2022/04/22 15:14:12;;;;;;;;;;;17.40;90.00;;;;;;6127394;23;19925;-85
2022/04/22 15:16:43;;;;;;;;;;;17.20;90.30;;;;;;6109606;23;19920;-85
2022/04/22 15:24:45;;;;;;;;;;;16.90;90.80;;;;;;6129707;23;19929;-90
2022/04/22 15:27:13;;;;;;;;;;;16.80;90.80;;;;;;6127844;23;20253;-87
2022/04/22 15:29:41;;;;;;;;;;;16.80;90.80;;;;;;6104879;23;19925;-84
2022/04/22 15:32:12;;;;;;;;;;;16.70;90.70;;;;;;6079032;23;20491;-85
2022/04/22 15:34:40;;;;;;;;;;;16.60;90.50;;;;;;6132001;23;19979;-86
2022/04/22 15:37:09;;;;;;;;;;;16.50;90.90;;;;;;6103662;23;19921;-86
2022/04/22 15:39:41;;;;;;;;;;;15.80;90.40;;;;;;6137644;23;19925;-85
2022/04/22 15:42:11;;;;;;;;;;;16.40;91.00;;;;;;6080806;23;19921;-86
2022/04/22 15:44:46;;;;;;;;;;;16.20;91.00;;;;;;6127040;23;19932;-88
2022/04/22 15:47:15;;;;;;;;;;;16.20;90.90;;;;;;6131716;23;19924;-83
2022/04/22 15:49:49;;;;;;;;;;;16.20;90.70;;;;;;6134076;23;19925;-89
2022/04/22 15:52:20;;;;;;;;;;;16.20;90.90;;;;;;6073434;23;19928;-84
2022/04/22 15:54:50;;;;;;;;;;;16.00;91.20;;;;;;6106368;23;19920;-84
2022/04/22 15:57:19;;;;;;;;;;;15.90;91.40;;;;;;6060514;23;19920;-84
2022/04/22 15:59:51;;;;;;;;;;;15.90;91.30;;;;;;6138741;23;19928;-86
2022/04/22 16:02:24;;;;;;;;;;;15.90;91.30;;;;;;6136946;23;19919;-87
2022/04/22 16:04:59;;;;;;;;;;;15.90;91.30;;;;;;6107277;23;19925;-86